Terminal Aerodrome Forecast
Issued by NWS Lake Charles, LA

Home | Current Version | Previous Version | Text Only | Print | Product List | Glossary On
Versions: 1 2 3 4 5 6 7 8 9 10 11 12
685
FTUS44 KLCH 161736
TAFARA
TAF
KARA 161736Z 1618/1718 01020G25KT P6SM -FZRASN BKN017 OVC035
      TEMPO 1618/1622 4SM -SNPL SCT020 OVC035
     FM162200 02017G22KT P6SM -SNPL OVC009
      TEMPO 1622/1702 3SM -RASN SCT009 BKN022 OVC070
     FM170200 36014G20KT P6SM OVC045
     FM170500 01012G18KT P6SM BKN090=

USA.gov is the U.S. government's official web portal to all federal, state and local government web resources and services.